Time;durP1;ratioP1;P1;durP2;ratioP2;P2;SDS_P1;SDS_P2;PMS_P1;PMS_P2;Temp;Humidity;BMP_temperature;BMP_pressure;BME280_temperature;BME280_humidity;BME280_pressure;Samples;Min_cycle;Max_cycle;Signal;HPM_P1;HPM_P2
2023/07/04 00:01:17;;;;;;;5.57;0.50;;;13.60;99.90;;;;;;5074609;28;20158;-69
2023/07/04 00:03:45;;;;;;;4.80;0.60;;;13.50;99.90;;;;;;5074886;28;20108;-69
2023/07/04 00:06:14;;;;;;;3.70;0.88;;;13.40;99.90;;;;;;5074537;28;20127;-69
2023/07/04 00:08:39;;;;;;;6.40;0.50;;;13.40;99.90;;;;;;5074279;28;20036;-69
2023/07/04 00:11:09;;;;;;;4.38;0.55;;;13.40;99.90;;;;;;5074262;28;20065;-69
2023/07/04 00:13:37;;;;;;;5.53;0.70;;;13.40;99.90;;;;;;5074411;28;20059;-69
2023/07/04 00:16:06;;;;;;;3.15;0.50;;;13.40;99.90;;;;;;5073656;28;20133;-69
2023/07/04 00:18:32;;;;;;;3.97;1.02;;;13.40;99.90;;;;;;5074717;28;20029;-69
2023/07/04 00:20:59;;;;;;;5.78;0.90;;;13.40;99.90;;;;;;5074056;28;20150;-69
2023/07/04 00:23:27;;;;;;;9.80;0.90;;;13.40;99.90;;;;;;5074378;28;20099;-69
2023/07/04 00:25:54;;;;;;;6.65;0.50;;;13.40;99.90;;;;;;5074235;28;20051;-69
2023/07/04 00:28:21;;;;;;;5.22;0.60;;;13.40;99.90;;;;;;5073611;28;20055;-69
2023/07/04 00:30:47;;;;;;;6.00;0.65;;;13.30;99.90;;;;;;5056190;28;20090;-69
2023/07/04 00:33:16;;;;;;;5.18;0.50;;;13.30;99.90;;;;;;5074926;28;20100;-69
2023/07/04 00:35:42;;;;;;;6.10;1.00;;;13.30;99.90;;;;;;5076203;28;20035;-70
2023/07/04 00:38:08;;;;;;;8.93;0.50;;;13.20;99.90;;;;;;5074623;28;20106;-69
2023/07/04 00:40:34;;;;;;;6.80;0.80;;;13.20;99.90;;;;;;5073101;28;20024;-69
2023/07/04 00:43:05;;;;;;;7.72;0.60;;;13.20;99.90;;;;;;5072115;28;20371;-70
2023/07/04 00:45:42;;;;;;;6.50;0.70;;;13.30;99.90;;;;;;5074060;28;20047;-69
2023/07/04 00:48:14;;;;;;;6.03;0.60;;;13.20;99.90;;;;;;5074257;28;20029;-69
2023/07/04 00:50:45;;;;;;;7.27;0.80;;;13.20;99.90;;;;;;5074243;28;20024;-70
2023/07/04 00:53:12;;;;;;;8.95;0.90;;;13.30;99.90;;;;;;5074272;28;20470;-69
2023/07/04 00:55:41;;;;;;;6.97;1.00;;;13.30;99.90;;;;;;5074206;28;20028;-69
2023/07/04 00:58:07;;;;;;;6.93;1.50;;;13.40;99.90;;;;;;5073332;28;20016;-70
2023/07/04 01:00:36;;;;;;;9.70;1.80;;;13.40;99.90;;;;;;5074694;28;20032;-69
2023/07/04 01:03:06;;;;;;;9.15;1.50;;;13.50;99.90;;;;;;5072965;28;20016;-69
2023/07/04 01:05:56;;;;;;;10.70;1.45;;;13.60;99.90;;;;;;5073737;28;20501;-69
2023/07/04 01:08:27;;;;;;;13.55;0.95;;;13.60;99.90;;;;;;5084618;28;20070;-70
2023/07/04 01:10:55;;;;;;;15.30;1.55;;;13.70;99.90;;;;;;5084446;28;20382;-70
2023/07/04 01:13:39;;;;;;;10.25;1.27;;;13.70;99.90;;;;;;5090124;28;20030;-70
2023/07/04 01:16:11;;;;;;;9.38;1.52;;;13.70;99.90;;;;;;5088847;28;20024;-70
2023/07/04 01:18:38;;;;;;;9.82;1.30;;;13.80;99.90;;;;;;5077317;28;20027;-70
2023/07/04 01:21:06;;;;;;;8.75;1.48;;;13.80;99.90;;;;;;5072748;28;20344;-69
2023/07/04 01:23:59;;;;;;;10.25;1.55;;;13.80;99.90;;;;;;5073087;28;20336;-69
2023/07/04 01:26:32;;;;;;;13.93;2.10;;;13.80;99.90;;;;;;5069512;28;20048;-69
2023/07/04 01:29:00;;;;;;;8.43;1.15;;;13.80;99.90;;;;;;5072199;28;20067;-70
2023/07/04 01:31:27;;;;;;;13.32;2.22;;;13.80;99.90;;;;;;5072550;28;20111;-70
2023/07/04 01:33:54;;;;;;;13.60;2.65;;;13.80;99.90;;;;;;5072101;28;20025;-70
2023/07/04 01:36:24;;;;;;;12.98;1.17;;;13.80;99.90;;;;;;5072158;28;20119;-69
2023/07/04 01:38:50;;;;;;;7.72;1.90;;;13.70;99.90;;;;;;5072144;28;20420;-69
2023/07/04 01:41:15;;;;;;;10.65;1.77;;;13.70;99.90;;;;;;5070952;28;20025;-69
2023/07/04 01:43:46;;;;;;;6.70;1.42;;;13.70;99.90;;;;;;5072316;28;20025;-69
2023/07/04 01:46:12;;;;;;;10.77;2.00;;;13.80;99.90;;;;;;5071814;28;20028;-69
2023/07/04 01:48:37;;;;;;;9.70;1.35;;;13.70;99.90;;;;;;5070843;28;20505;-69
2023/07/04 01:51:03;;;;;;;11.82;1.70;;;13.70;99.90;;;;;;5070112;28;20024;-69
2023/07/04 01:53:29;;;;;;;7.90;1.20;;;13.70;99.90;;;;;;5071132;28;20028;-69
2023/07/04 01:55:55;;;;;;;14.52;1.80;;;13.70;99.90;;;;;;5071509;28;20059;-69
2023/07/04 01:58:20;;;;;;;12.68;1.70;;;13.70;99.90;;;;;;5072033;28;20094;-70
2023/07/04 02:00:46;;;;;;;13.38;1.88;;;13.80;99.90;;;;;;5071816;28;20036;-69
2023/07/04 02:03:11;;;;;;;9.98;2.05;;;13.80;99.90;;;;;;5071404;28;20453;-70
2023/07/04 02:05:38;;;;;;;16.88;2.55;;;13.70;99.90;;;;;;5071831;28;20021;-69
2023/07/04 02:08:04;;;;;;;12.68;1.75;;;13.80;99.90;;;;;;5069057;28;20039;-69
2023/07/04 02:10:29;;;;;;;6.97;1.77;;;13.70;99.90;;;;;;5071605;28;20115;-69
2023/07/04 02:12:55;;;;;;;14.82;1.67;;;13.70;99.90;;;;;;5071276;28;20027;-70
2023/07/04 02:15:22;;;;;;;7.40;1.00;;;13.70;99.90;;;;;;5070525;28;20028;-69
2023/07/04 02:17:47;;;;;;;9.57;1.20;;;13.60;99.90;;;;;;5071684;28;20023;-69
2023/07/04 02:20:16;;;;;;;5.85;1.02;;;13.60;99.90;;;;;;5071128;28;20459;-69
2023/07/04 02:22:42;;;;;;;7.82;1.50;;;13.60;99.90;;;;;;5071713;28;20437;-69
2023/07/04 02:25:08;;;;;;;10.10;1.10;;;13.60;99.90;;;;;;5070763;28;20036;-69
2023/07/04 02:27:33;;;;;;;5.93;1.00;;;13.50;99.90;;;;;;5069997;28;20028;-69
2023/07/04 02:29:59;;;;;;;7.68;1.60;;;13.50;99.90;;;;;;5070725;28;20170;-69
2023/07/04 02:32:24;;;;;;;6.97;1.17;;;13.50;99.90;;;;;;5071782;28;20028;-69
2023/07/04 02:34:50;;;;;;;4.60;0.82;;;13.40;99.90;;;;;;5070931;28;20096;-70
2023/07/04 02:37:15;;;;;;;4.68;0.93;;;13.40;99.90;;;;;;5071379;28;20103;-70
2023/07/04 02:39:41;;;;;;;7.07;1.15;;;13.30;99.90;;;;;;5071046;28;20027;-69
2023/07/04 02:42:07;;;;;;;6.68;1.10;;;13.30;99.90;;;;;;5071057;28;20109;-69
2023/07/04 02:44:34;;;;;;;10.50;2.50;;;13.20;99.90;;;;;;5071338;28;20021;-69
2023/07/04 02:46:59;;;;;;;9.75;1.95;;;13.20;99.90;;;;;;5071092;28;20028;-69
2023/07/04 02:49:24;;;;;;;6.68;1.42;;;13.20;99.90;;;;;;5071302;28;20362;-70
2023/07/04 02:51:50;;;;;;;5.80;1.60;;;13.20;99.90;;;;;;5063144;28;20025;-69
2023/07/04 02:54:16;;;;;;;7.40;1.73;;;13.10;99.90;;;;;;5071204;28;20032;-69
2023/07/04 02:56:42;;;;;;;7.90;1.83;;;13.20;99.90;;;;;;5070830;28;20032;-69
2023/07/04 02:59:08;;;;;;;8.88;1.83;;;13.20;99.90;;;;;;5070674;28;20070;-69
2023/07/04 03:01:33;;;;;;;8.45;1.27;;;13.20;99.90;;;;;;5069704;28;20413;-69
2023/07/04 03:03:59;;;;;;;10.77;1.65;;;13.20;99.90;;;;;;5070419;28;20443;-69
2023/07/04 03:06:24;;;;;;;4.40;0.95;;;13.20;99.90;;;;;;5070291;28;20388;-70
2023/07/04 03:08:50;;;;;;;5.63;1.30;;;13.20;99.90;;;;;;5070442;28;20102;-70
2023/07/04 03:11:15;;;;;;;6.60;1.23;;;13.20;99.90;;;;;;5070668;28;20025;-69
2023/07/04 03:13:41;;;;;;;8.18;1.38;;;13.20;99.90;;;;;;5070928;28;20033;-69
2023/07/04 03:16:06;;;;;;;13.52;1.30;;;13.20;99.90;;;;;;5070574;28;20020;-70
2023/07/04 03:18:33;;;;;;;13.20;2.70;;;13.20;99.90;;;;;;5071017;28;20024;-70
2023/07/04 03:20:58;;;;;;;11.25;1.98;;;13.20;99.90;;;;;;5070795;28;20025;-69
2023/07/04 03:23:24;;;;;;;9.07;2.13;;;13.10;99.90;;;;;;5070916;28;20389;-70
2023/07/04 03:25:49;;;;;;;8.77;1.60;;;13.10;99.90;;;;;;5068648;28;20099;-70
2023/07/04 03:28:15;;;;;;;8.95;1.65;;;13.10;99.90;;;;;;5070595;28;20518;-69
2023/07/04 03:30:41;;;;;;;14.77;2.53;;;13.10;99.90;;;;;;5070714;28;20083;-70
2023/07/04 03:33:06;;;;;;;12.48;2.17;;;13.00;99.90;;;;;;5069008;28;20056;-69
2023/07/04 03:35:32;;;;;;;9.25;2.13;;;13.10;99.90;;;;;;5070618;28;20104;-69
2023/07/04 03:37:58;;;;;;;10.18;3.00;;;13.10;99.90;;;;;;5069268;28;20021;-70
2023/07/04 03:40:23;;;;;;;9.43;3.22;;;13.10;99.90;;;;;;5071815;28;20035;-69
2023/07/04 03:42:49;;;;;;;17.65;3.42;;;13.00;99.90;;;;;;5072435;28;20028;-69
2023/07/04 03:45:14;;;;;;;11.23;3.13;;;13.10;99.90;;;;;;5075381;28;20048;-69
2023/07/04 03:47:40;;;;;;;15.07;3.80;;;13.00;99.90;;;;;;5093425;28;20067;-70
2023/07/04 03:50:06;;;;;;;16.25;3.72;;;13.00;99.90;;;;;;5077829;28;20037;-70
2023/07/04 03:52:32;;;;;;;19.55;5.38;;;13.00;99.90;;;;;;5090821;28;20024;-69
2023/07/04 03:54:57;;;;;;;19.77;3.80;;;13.00;99.90;;;;;;5076275;28;20029;-69
2023/07/04 03:57:23;;;;;;;20.60;4.10;;;13.10;99.90;;;;;;5069621;28;20052;-70
2023/07/04 03:59:48;;;;;;;17.10;4.47;;;13.10;99.90;;;;;;5069963;28;20028;-69
2023/07/04 04:02:14;;;;;;;20.38;5.47;;;13.10;99.90;;;;;;5070343;28;20390;-70
2023/07/04 04:04:40;;;;;;;15.02;4.50;;;13.10;99.90;;;;;;5070755;28;20036;-69
2023/07/04 04:07:07;;;;;;;16.58;4.72;;;13.10;99.90;;;;;;5069743;28;20025;-70
2023/07/04 04:09:34;;;;;;;21.95;5.50;;;13.20;99.90;;;;;;5070190;28;20466;-69
2023/07/04 04:12:01;;;;;;;18.45;4.82;;;13.10;99.90;;;;;;5068441;28;20041;-70
2023/07/04 04:14:29;;;;;;;20.08;5.32;;;13.20;99.90;;;;;;5070414;28;20545;-70
2023/07/04 04:16:55;;;;;;;20.35;5.07;;;13.20;99.90;;;;;;5071444;28;20099;-70
2023/07/04 04:19:21;;;;;;;20.52;5.53;;;13.20;99.90;;;;;;5073845;28;20078;-69
2023/07/04 04:21:47;;;;;;;17.20;5.05;;;13.20;99.90;;;;;;5073782;28;20478;-70
2023/07/04 04:24:12;;;;;;;16.95;5.47;;;13.30;99.90;;;;;;5073238;28;20113;-70
2023/07/04 04:26:39;;;;;;;22.80;6.03;;;13.30;99.90;;;;;;5073571;28;20048;-69
2023/07/04 04:29:05;;;;;;;17.17;5.55;;;13.30;99.90;;;;;;5073370;28;20044;-70
2023/07/04 04:31:37;;;;;;;14.75;5.30;;;13.30;99.90;;;;;;5073432;28;20024;-70
2023/07/04 04:34:03;;;;;;;14.15;5.25;;;13.30;99.90;;;;;;5073749;28;20036;-70
2023/07/04 04:36:30;;;;;;;19.17;6.53;;;13.30;99.90;;;;;;5073593;28;20025;-70
2023/07/04 04:38:56;;;;;;;22.73;5.80;;;13.40;99.90;;;;;;5073062;28;20569;-70
2023/07/04 04:41:21;;;;;;;30.13;6.45;;;13.40;99.90;;;;;;5073713;28;20104;-70
2023/07/04 04:43:49;;;;;;;20.38;5.80;;;13.50;99.90;;;;;;5073647;28;20089;-70
2023/07/04 04:46:16;;;;;;;17.92;6.75;;;13.60;99.90;;;;;;5073656;28;20070;-69
2023/07/04 04:48:42;;;;;;;18.15;5.05;;;13.70;99.90;;;;;;5072998;28;20035;-70
2023/07/04 04:51:12;;;;;;;30.52;5.95;;;13.70;99.90;;;;;;5073326;28;20025;-70
2023/07/04 04:53:40;;;;;;;23.42;5.18;;;13.80;99.90;;;;;;5073478;28;20020;-70
2023/07/04 04:56:06;;;;;;;22.92;5.47;;;13.90;99.90;;;;;;5073189;28;20447;-69
2023/07/04 04:58:32;;;;;;;24.42;6.65;;;13.90;99.90;;;;;;5073418;28;20036;-70
2023/07/04 05:01:10;;;;;;;22.83;5.95;;;14.00;99.90;;;;;;5073009;28;20048;-70
2023/07/04 05:03:35;;;;;;;24.30;6.07;;;14.20;99.90;;;;;;5072139;28;20074;-70
2023/07/04 05:06:02;;;;;;;19.63;4.85;;;14.20;99.90;;;;;;5071586;28;20032;-70
2023/07/04 05:08:28;;;;;;;24.83;5.57;;;14.30;99.90;;;;;;5073436;28;20052;-70
2023/07/04 05:11:07;;;;;;;24.95;6.45;;;14.30;99.90;;;;;;5072873;28;20029;-70
2023/07/04 05:13:37;;;;;;;18.63;4.97;;;14.40;99.90;;;;;;5073080;28;20035;-70
2023/07/04 05:16:05;;;;;;;19.60;6.13;;;14.50;99.90;;;;;;5072377;28;20020;-70
2023/07/04 05:18:34;;;;;;;23.90;5.65;;;14.50;99.90;;;;;;5072809;28;20458;-70
2023/07/04 05:21:04;;;;;;;23.55;6.15;;;14.50;99.90;;;;;;5072365;28;20140;-70
2023/07/04 05:23:38;;;;;;;21.42;5.57;;;14.50;99.90;;;;;;5072861;28;20056;-70
2023/07/04 05:26:08;;;;;;;20.92;6.32;;;14.60;99.90;;;;;;5072673;28;20123;-70
2023/07/04 05:28:34;;;;;;;39.92;8.35;;;14.60;99.90;;;;;;5071903;28;20033;-70
2023/07/04 05:31:02;;;;;;;24.52;6.40;;;14.70;99.90;;;;;;5072170;28;20486;-70
2023/07/04 05:33:28;;;;;;;20.17;5.53;;;14.80;99.90;;;;;;5072663;28;20040;-70
2023/07/04 05:36:14;;;;;;;18.67;6.15;;;14.90;99.90;;;;;;5072527;28;20048;-70
2023/07/04 05:38:40;;;;;;;25.45;5.75;;;15.00;99.90;;;;;;5072873;28;20024;-70
2023/07/04 05:41:12;;;;;;;18.80;6.00;;;15.00;99.90;;;;;;5072040;28;20082;-70
2023/07/04 05:43:39;;;;;;;19.90;5.33;;;15.20;99.90;;;;;;5072364;28;20025;-70
2023/07/04 05:46:05;;;;;;;20.13;5.05;;;15.50;99.90;;;;;;5066686;28;20431;-72
2023/07/04 05:48:32;;;;;;;19.92;5.32;;;15.70;99.90;;;;;;5052396;28;20036;-71
2023/07/04 05:51:00;;;;;;;24.90;6.25;;;15.70;99.90;;;;;;5056883;28;20093;-71
2023/07/04 05:53:28;;;;;;;27.77;6.13;;;15.60;99.90;;;;;;5072243;28;20033;-71
2023/07/04 05:56:12;;;;;;;20.60;6.28;;;15.60;99.90;;;;;;5071633;28;20444;-71
2023/07/04 05:58:41;;;;;;;22.75;5.85;;;15.60;99.90;;;;;;5071905;28;20055;-70
2023/07/04 06:01:09;;;;;;;23.60;6.38;;;15.60;99.90;;;;;;5072859;28;20023;-72
2023/07/04 06:03:35;;;;;;;21.02;6.68;;;15.70;99.90;;;;;;5072160;28;20056;-69
2023/07/04 06:06:03;;;;;;;21.13;6.70;;;15.80;99.90;;;;;;5071348;28;20028;-69
2023/07/04 06:08:28;;;;;;;27.77;6.55;;;15.90;99.90;;;;;;5070576;28;20027;-69
2023/07/04 06:11:02;;;;;;;29.80;7.45;;;15.90;99.90;;;;;;5071248;28;20032;-69
2023/07/04 06:13:28;;;;;;;30.55;6.70;;;16.00;99.90;;;;;;5070605;28;20028;-69
2023/07/04 06:15:54;;;;;;;21.85;6.00;;;16.10;99.90;;;;;;5071526;28;20153;-70
2023/07/04 06:18:19;;;;;;;26.00;6.55;;;16.20;99.90;;;;;;5071726;28;20062;-69
2023/07/04 06:20:45;;;;;;;22.55;6.10;;;16.30;99.90;;;;;;5078053;28;20070;-69
2023/07/04 06:23:10;;;;;;;24.27;6.10;;;16.40;99.90;;;;;;5080740;28;20020;-69
2023/07/04 06:25:36;;;;;;;22.15;6.50;;;16.40;99.90;;;;;;5087968;28;20079;-70
2023/07/04 06:28:01;;;;;;;23.00;6.38;;;16.50;99.90;;;;;;5086315;28;20052;-70
2023/07/04 06:30:30;;;;;;;27.33;6.07;;;16.60;99.90;;;;;;5071253;28;20389;-70
2023/07/04 06:32:58;;;;;;;24.02;5.53;;;16.70;99.90;;;;;;5071324;28;20040;-70
2023/07/04 06:35:24;;;;;;;30.10;5.90;;;16.70;99.90;;;;;;5071233;28;20351;-70
2023/07/04 06:37:49;;;;;;;20.02;4.35;;;16.80;99.90;;;;;;5071062;28;20016;-70
2023/07/04 06:40:17;;;;;;;26.92;5.88;;;16.90;99.90;;;;;;5070965;28;20035;-70
2023/07/04 06:42:43;;;;;;;25.75;5.40;;;17.00;99.90;;;;;;5071068;28;20028;-70
2023/07/04 06:45:08;;;;;;;25.90;5.47;;;17.10;99.90;;;;;;5068720;28;20147;-70
2023/07/04 06:47:34;;;;;;;21.23;5.18;;;17.00;99.90;;;;;;5071473;28;20033;-70
2023/07/04 06:49:59;;;;;;;16.58;4.03;;;16.90;99.90;;;;;;5070847;28;20068;-70
2023/07/04 06:52:25;;;;;;;16.33;4.07;;;16.90;99.90;;;;;;5071048;28;20382;-70
2023/07/04 06:54:51;;;;;;;22.13;4.18;;;17.00;99.90;;;;;;5070377;28;20040;-70
2023/07/04 06:57:18;;;;;;;15.07;3.22;;;17.10;99.90;;;;;;5071363;28;20082;-71
2023/07/04 06:59:45;;;;;;;17.55;4.13;;;17.20;99.90;;;;;;5071044;28;20478;-70
2023/07/04 07:02:13;;;;;;;19.55;4.78;;;17.30;99.90;;;;;;5070628;28;20474;-70
2023/07/04 07:04:39;;;;;;;14.02;3.83;;;17.40;99.90;;;;;;5070873;28;20021;-70
2023/07/04 07:07:08;;;;;;;22.60;5.13;;;17.50;99.90;;;;;;5070625;28;20103;-70
2023/07/04 07:09:36;;;;;;;18.90;3.17;;;17.70;99.90;;;;;;5071081;28;20486;-71
2023/07/04 07:12:02;;;;;;;22.42;4.10;;;17.80;99.90;;;;;;5070488;28;20029;-70
2023/07/04 07:14:29;;;;;;;19.20;3.58;;;17.90;99.90;;;;;;5069557;28;20028;-70
2023/07/04 07:16:56;;;;;;;14.88;3.63;;;18.00;99.90;;;;;;5070716;28;20056;-70
2023/07/04 07:19:23;;;;;;;17.55;3.47;;;18.00;99.90;;;;;;5071068;28;20036;-70
2023/07/04 07:21:49;;;;;;;20.63;4.25;;;18.10;99.90;;;;;;5070255;28;20032;-70
2023/07/04 07:24:14;;;;;;;12.50;2.72;;;18.10;99.90;;;;;;5070724;28;20032;-71
2023/07/04 07:26:40;;;;;;;12.05;2.72;;;18.20;99.90;;;;;;5070411;28;20048;-70
2023/07/04 07:29:05;;;;;;;16.98;4.30;;;18.20;99.90;;;;;;5070580;28;20037;-70
2023/07/04 07:31:31;;;;;;;14.90;2.97;;;18.20;99.90;;;;;;5070742;28;20078;-70
2023/07/04 07:33:56;;;;;;;10.90;3.03;;;18.30;99.90;;;;;;5070469;28;20085;-70
2023/07/04 07:36:37;;;;;;;16.70;2.35;;;18.50;99.90;;;;;;5070750;28;20032;-70
2023/07/04 07:39:05;;;;;;;13.45;2.50;;;18.70;99.90;;;;;;5055205;28;20034;-70
2023/07/04 07:41:37;;;;;;;9.52;2.10;;;18.90;99.90;;;;;;5070564;28;20013;-70
2023/07/04 07:44:04;;;;;;;;;;;18.90;99.90;;;;;;5060383;28;20035;-70
2023/07/04 07:46:29;;;;;;;17.65;2.10;;;18.80;99.90;;;;;;5067301;28;19904;-71
2023/07/04 07:48:55;;;;;;;10.88;1.73;;;18.80;99.90;;;;;;5069673;28;20067;-71
2023/07/04 07:51:22;;;;;;;13.73;1.50;;;18.80;99.90;;;;;;5071137;28;20101;-71
2023/07/04 07:53:49;;;;;;;9.15;1.70;;;18.70;99.90;;;;;;5074386;28;20509;-71
2023/07/04 07:56:23;;;;;;;13.43;1.63;;;18.70;99.90;;;;;;5074794;28;20039;-71
2023/07/04 07:58:49;;;;;;;12.25;1.60;;;18.80;99.90;;;;;;5073847;28;20031;-72
2023/07/04 08:01:23;;;;;;;8.30;1.52;;;18.70;99.90;;;;;;5074563;28;20096;-71
2023/07/04 08:03:49;;;;;;;11.52;1.38;;;18.60;99.90;;;;;;5072540;28;20514;-71
2023/07/04 08:06:23;;;;;;;10.00;1.00;;;18.60;99.90;;;;;;5073836;28;20137;-71
2023/07/04 08:08:49;;;;;;;7.90;1.20;;;18.80;99.90;;;;;;5073712;28;20029;-70
2023/07/04 08:11:15;;;;;;;11.05;1.23;;;19.00;99.90;;;;;;5074476;28;20020;-71
2023/07/04 08:13:41;;;;;;;9.57;1.83;;;19.20;99.90;;;;;;5074027;28;20478;-70
2023/07/04 08:16:06;;;;;;;11.93;1.80;;;19.30;99.90;;;;;;5073759;28;20444;-71
2023/07/04 08:18:32;;;;;;;12.60;1.73;;;19.40;99.90;;;;;;5073960;28;20139;-71
2023/07/04 08:21:02;;;;;;;11.32;1.60;;;19.40;99.90;;;;;;5073615;28;20478;-71
2023/07/04 08:23:28;;;;;;;11.98;1.70;;;19.40;99.90;;;;;;5074040;28;20078;-71
2023/07/04 08:25:54;;;;;;;9.65;1.52;;;19.30;99.90;;;;;;5073394;28;20459;-71
2023/07/04 08:28:21;;;;;;;13.32;1.95;;;19.20;99.90;;;;;;5073880;28;20113;-71
2023/07/04 08:30:47;;;;;;;10.25;1.80;;;19.10;99.90;;;;;;5074123;28;20452;-71
2023/07/04 08:33:17;;;;;;;10.15;1.40;;;19.10;99.90;;;;;;5073171;28;20020;-70
2023/07/04 08:36:00;;;;;;;8.43;0.98;;;19.00;99.90;;;;;;5073907;28;20029;-70
2023/07/04 08:38:27;;;;;;;6.47;1.42;;;18.90;99.90;;;;;;5073966;28;20109;-70
2023/07/04 08:40:53;;;;;;;8.13;1.08;;;18.90;99.90;;;;;;5073650;28;20056;-70
2023/07/04 08:43:27;;;;;;;9.43;1.33;;;19.00;99.90;;;;;;5058244;28;20510;-70
2023/07/04 08:45:54;;;;;;;10.00;1.40;;;19.00;99.90;;;;;;5053262;28;20052;-69
2023/07/04 08:48:23;;;;;;;10.15;1.55;;;19.00;99.90;;;;;;5068774;28;20032;-71
2023/07/04 08:50:51;;;;;;;6.22;1.05;;;19.10;99.90;;;;;;5073080;28;20028;-69
2023/07/04 08:53:19;;;;;;;6.30;0.95;;;19.30;99.90;;;;;;5073444;28;20029;-69
2023/07/04 08:56:03;;;;;;;8.30;1.02;;;19.50;99.90;;;;;;5074622;28;20027;-69
2023/07/04 08:59:00;;;;;;;7.88;1.00;;;19.70;99.90;;;;;;5074464;28;20078;-69
2023/07/04 09:02:03;;;;;;;6.38;1.00;;;19.70;99.90;;;;;;5078774;28;20043;-70
2023/07/04 09:04:39;;;;;;;6.97;0.60;;;19.80;99.90;;;;;;5052390;28;20036;-69
2023/07/04 09:07:25;;;;;;;7.35;0.80;;;19.70;99.90;;;;;;5052889;28;20459;-69
2023/07/04 09:10:19;;;;;;;6.28;0.80;;;19.70;99.90;;;;;;5052650;28;20040;-69
2023/07/04 09:12:47;;;;;;;11.63;1.35;;;19.80;99.90;;;;;;5072025;28;20456;-69
2023/07/04 09:15:22;;;;;;;9.15;1.10;;;19.80;99.90;;;;;;5072707;28;20020;-70
2023/07/04 09:17:58;;;;;;;4.60;1.08;;;19.80;99.90;;;;;;5073363;28;20020;-69
2023/07/04 09:20:24;;;;;;;7.28;0.70;;;19.70;99.60;;;;;;5073126;28;20111;-69
2023/07/04 09:22:50;;;;;;;7.95;1.00;;;19.70;99.40;;;;;;5072522;28;20483;-69
2023/07/04 09:25:15;;;;;;;5.88;0.80;;;19.70;99.00;;;;;;5071099;28;20144;-69
2023/07/04 09:27:41;;;;;;;7.45;0.70;;;19.70;98.90;;;;;;5072894;28;20016;-70
2023/07/04 09:30:08;;;;;;;8.13;0.90;;;19.70;99.10;;;;;;5072113;28;20441;-69
2023/07/04 09:32:34;;;;;;;7.72;1.13;;;19.80;99.30;;;;;;5072931;28;20021;-69
2023/07/04 09:35:03;;;;;;;6.10;0.90;;;19.90;99.10;;;;;;5072227;28;20037;-70
2023/07/04 09:37:29;;;;;;;7.32;0.60;;;20.00;98.70;;;;;;5072335;28;20039;-69
2023/07/04 09:39:57;;;;;;;10.82;0.85;;;20.10;98.70;;;;;;5071974;28;20127;-70
2023/07/04 09:42:40;;;;;;;9.63;1.10;;;20.10;98.90;;;;;;5068889;28;20081;-69
2023/07/04 09:45:09;;;;;;;8.10;0.75;;;20.30;98.40;;;;;;5052351;28;20074;-69
2023/07/04 09:47:36;;;;;;;9.18;1.05;;;20.50;97.40;;;;;;5051546;28;20079;-69
2023/07/04 09:50:12;;;;;;;7.43;1.08;;;20.40;96.80;;;;;;5064727;28;20032;-69
2023/07/04 09:52:39;;;;;;;9.80;1.00;;;20.50;96.60;;;;;;5071682;28;20021;-69
2023/07/04 09:55:16;;;;;;;8.77;1.00;;;20.40;96.40;;;;;;5071582;28;20121;-69
2023/07/04 09:57:44;;;;;;;8.48;1.08;;;20.50;96.10;;;;;;5072236;28;20031;-69
2023/07/04 10:00:26;;;;;;;6.82;0.93;;;20.50;95.80;;;;;;5071511;28;20021;-69
2023/07/04 10:02:55;;;;;;;;;;;20.50;94.60;;;;;;5071369;28;20498;-69
2023/07/04 10:05:31;;;;;;;4.55;1.00;;;20.50;94.60;;;;;;5072058;28;20373;-69
2023/07/04 10:08:09;;;;;;;7.18;0.75;;;20.50;94.10;;;;;;5071591;28;20023;-69
2023/07/04 10:10:44;;;;;;;5.18;0.82;;;20.40;93.70;;;;;;5072078;28;20044;-69
2023/07/04 10:13:12;;;;;;;6.35;0.70;;;20.40;94.10;;;;;;5071819;28;20028;-70
2023/07/04 10:15:41;;;;;;;7.03;0.60;;;20.60;93.60;;;;;;5071241;28;20017;-70
2023/07/04 10:18:23;;;;;;;5.35;0.73;;;20.80;93.30;;;;;;5071856;28;20051;-70
2023/07/04 10:20:55;;;;;;;6.65;0.80;;;20.80;92.50;;;;;;5071430;28;20158;-71
2023/07/04 10:23:22;;;;;;;;;;;20.80;92.50;;;;;;5071145;28;20036;-71
2023/07/04 10:25:54;;;;;;;4.22;0.75;;;20.90;92.90;;;;;;5070119;28;20287;-70
2023/07/04 10:28:26;;;;;;;8.45;0.90;;;21.30;92.90;;;;;;5071736;28;20031;-71
2023/07/04 10:31:08;;;;;;;6.53;0.70;;;21.50;92.10;;;;;;5071262;28;20024;-71
2023/07/04 10:33:44;;;;;;;8.32;0.95;;;21.60;91.80;;;;;;5071758;28;20095;-71
2023/07/04 10:36:16;;;;;;;8.40;1.20;;;21.60;92.00;;;;;;5069955;28;20024;-71
2023/07/04 10:38:51;;;;;;;6.60;0.75;;;21.70;91.20;;;;;;5070001;28;20027;-70
2023/07/04 10:41:44;;;;;;;5.70;0.68;;;21.90;90.60;;;;;;5050089;28;20032;-70
2023/07/04 10:44:15;;;;;;;8.65;0.80;;;21.90;89.40;;;;;;5064388;28;20064;-70
2023/07/04 10:46:51;;;;;;;7.43;0.98;;;22.00;89.90;;;;;;5071215;28;20029;-72
2023/07/04 10:49:20;;;;;;;4.50;0.73;;;22.10;87.70;;;;;;5070311;28;20036;-71
2023/07/04 10:51:53;;;;;;;6.82;1.00;;;22.00;85.80;;;;;;5070057;28;20029;-70
2023/07/04 10:54:24;;;;;;;4.07;0.77;;;22.10;85.60;;;;;;5070107;28;20029;-70
2023/07/04 10:57:00;;;;;;;3.95;0.70;;;22.00;85.10;;;;;;5069558;28;20588;-71
2023/07/04 10:59:30;;;;;;;6.05;0.70;;;22.10;85.00;;;;;;5054287;28;20038;-72
2023/07/04 11:02:23;;;;;;;4.03;0.80;;;22.00;81.60;;;;;;5070823;28;20497;-72
2023/07/04 11:04:51;;;;;;;6.80;0.90;;;21.90;82.20;;;;;;5070671;28;20025;-72
2023/07/04 11:07:24;;;;;;;6.90;1.13;;;21.70;82.60;;;;;;5071139;28;20036;-72
2023/07/04 11:09:57;;;;;;;8.48;0.70;;;21.70;83.40;;;;;;5069028;28;20033;-72
2023/07/04 11:12:33;;;;;;;7.10;0.68;;;21.70;82.20;;;;;;5069794;28;20028;-73
2023/07/04 11:15:05;;;;;;;5.75;0.68;;;21.70;83.00;;;;;;5049300;28;20219;-72
2023/07/04 11:17:33;;;;;;;;;;;21.80;83.20;;;;;;5058373;28;20017;-71
2023/07/04 11:20:11;;;;;;;4.43;0.60;;;21.90;82.00;;;;;;5070543;28;19905;-71
2023/07/04 11:22:55;;;;;;;5.40;0.63;;;21.90;81.70;;;;;;5071188;28;20035;-71
2023/07/04 11:25:42;;;;;;;6.95;0.90;;;22.20;82.30;;;;;;5070829;28;20502;-70
2023/07/04 11:28:26;;;;;;;5.75;0.90;;;22.20;82.40;;;;;;5049118;28;20028;-73
2023/07/04 11:31:07;;;;;;;8.82;0.73;;;22.40;83.00;;;;;;5050358;28;20029;-71
2023/07/04 11:33:42;;;;;;;4.78;0.80;;;22.50;82.30;;;;;;5058056;28;20115;-71
2023/07/04 11:36:30;;;;;;;6.28;0.70;;;22.70;82.20;;;;;;5069169;28;20024;-71
2023/07/04 11:39:18;;;;;;;4.68;0.70;;;22.80;80.10;;;;;;5062195;28;20096;-71
2023/07/04 11:41:45;;;;;;;6.75;0.70;;;22.80;78.30;;;;;;5071225;28;20078;-71
2023/07/04 11:44:31;;;;;;;5.78;0.57;;;22.50;78.00;;;;;;5069169;28;20029;-71
2023/07/04 11:47:00;;;;;;;4.90;0.77;;;22.30;78.20;;;;;;5072111;28;20075;-71
2023/07/04 11:49:28;;;;;;;6.22;0.73;;;22.00;77.80;;;;;;5076423;28;20032;-71
2023/07/04 11:52:21;;;;;;;5.68;0.80;;;21.90;78.00;;;;;;5076322;28;20025;-71
2023/07/04 11:54:58;;;;;;;5.75;0.85;;;21.90;78.40;;;;;;5072007;28;20056;-71
2023/07/04 11:57:44;;;;;;;7.57;0.85;;;22.00;79.60;;;;;;5071082;28;20056;-72
2023/07/04 12:00:43;;;;;;;3.38;0.60;;;22.20;78.80;;;;;;5068788;28;20059;-71
2023/07/04 12:03:21;;;;;;;8.07;0.75;;;22.20;79.30;;;;;;5070005;28;20029;-71
2023/07/04 12:05:59;;;;;;;4.90;0.75;;;22.20;79.80;;;;;;5069467;28;20024;-71
2023/07/04 12:08:47;;;;;;;3.83;0.73;;;22.30;80.60;;;;;;5069269;28;20028;-71
2023/07/04 12:11:37;;;;;;;4.85;0.80;;;22.50;79.60;;;;;;5068963;28;20028;-71
2023/07/04 12:14:06;;;;;;;5.45;0.68;;;22.60;78.40;;;;;;5069948;28;20494;-71
2023/07/04 12:16:33;;;;;;;5.65;1.45;;;22.80;78.70;;;;;;5069274;28;20029;-71
2023/07/04 12:19:06;;;;;;;7.28;1.00;;;22.90;77.90;;;;;;5068597;28;20402;-71
2023/07/04 12:21:33;;;;;;;4.63;0.88;;;23.00;77.00;;;;;;5049368;28;20032;-71
2023/07/04 12:24:05;;;;;;;4.75;0.70;;;23.10;76.70;;;;;;5048827;28;20033;-72
2023/07/04 12:26:33;;;;;;;4.72;0.98;;;23.10;76.30;;;;;;5062964;28;20051;-71
2023/07/04 12:29:03;;;;;;;6.05;0.98;;;23.00;75.20;;;;;;5057018;28;20071;-71
2023/07/04 12:31:31;;;;;;;3.03;0.60;;;23.00;75.10;;;;;;5068816;28;20086;-71
2023/07/04 12:33:58;;;;;;;4.22;0.80;;;23.00;75.50;;;;;;5070049;28;20020;-72
2023/07/04 12:36:33;;;;;;;7.63;1.00;;;23.10;75.90;;;;;;5066098;28;20078;-72
2023/07/04 12:39:03;;;;;;;3.30;0.70;;;23.20;76.00;;;;;;5068479;28;20032;-72
2023/07/04 12:41:32;;;;;;;4.55;0.80;;;23.10;74.40;;;;;;5074133;28;20039;-71
2023/07/04 12:44:02;;;;;;;5.55;0.70;;;23.10;75.20;;;;;;5073113;28;20077;-71
2023/07/04 12:46:32;;;;;;;4.53;0.80;;;23.10;75.50;;;;;;5073674;28;20077;-71
2023/07/04 12:49:00;;;;;;;4.78;0.80;;;23.00;74.40;;;;;;5072165;28;20085;-71
2023/07/04 12:51:30;;;;;;;3.55;0.80;;;22.70;74.10;;;;;;5072539;28;20031;-71
2023/07/04 12:54:02;;;;;;;6.78;1.10;;;22.70;76.00;;;;;;5073161;28;20410;-72
2023/07/04 12:56:30;;;;;;;7.07;0.90;;;22.70;75.90;;;;;;5072226;28;20020;-71